Terminal Aerodrome Forecast
Issued by NWS

Home | Current Version | Previous Version | Text Only | Print | Product List | Glossary On
Versions: 1 2 3 4 5 6 7 8 9 10 11 12 13 14 15 16 17 18
000
FTUS45 KRIW 161100
TAFCPR
TAF
KCPR 161125Z 1612/1712 27009KT P6SM VCSH SCT035 BKN060
     FM161600 30011KT P6SM SCT060
     FM162200 35011KT P6SM VCSH SCT050 BKN080
     FM170400 VRB05KT P6SM SCT090 BKN150=

USA.gov is the U.S. government's official web portal to all federal, state and local government web resources and services.